sensor_id;sensor_type;location;lat;lon;timestamp;pressure;altitude;pressure_sealevel;temperature;humidity
44131;BME280;29792;48.726;9.248;2022-12-05T00:01:28;96683.19;;;2.67;100.00
44131;BME280;29792;48.726;9.248;2022-12-05T00:03:56;96679.91;;;2.65;100.00
44131;BME280;29792;48.726;9.248;2022-12-05T00:06:25;96670.78;;;2.62;100.00
44131;BME280;29792;48.726;9.248;2022-12-05T00:08:51;96686.75;;;2.63;100.00
44131;BME280;29792;48.726;9.248;2022-12-05T00:11:22;96686.75;;;2.63;100.00
44131;BME280;29792;48.726;9.248;2022-12-05T00:13:48;96690.84;;;2.65;100.00
44131;BME280;29792;48.726;9.248;2022-12-05T00:16:16;96682.44;;;2.65;100.00
44131;BME280;29792;48.726;9.248;2022-12-05T00:18:43;96684.31;;;2.61;100.00
44131;BME280;29792;48.726;9.248;2022-12-05T00:21:20;96681.16;;;2.58;100.00
44131;BME280;29792;48.726;9.248;2022-12-05T00:23:46;96686.34;;;2.55;100.00
44131;BME280;29792;48.726;9.248;2022-12-05T00:26:11;96682.38;;;2.51;100.00
44131;BME280;29792;48.726;9.248;2022-12-05T00:28:38;96689.16;;;2.50;100.00
44131;BME280;29792;48.726;9.248;2022-12-05T00:31:06;96678.03;;;2.53;100.00
44131;BME280;29792;48.726;9.248;2022-12-05T00:33:32;96680.47;;;2.54;100.00
44131;BME280;29792;48.726;9.248;2022-12-05T00:36:09;96680.47;;;2.54;100.00
44131;BME280;29792;48.726;9.248;2022-12-05T00:38:35;96677.06;;;2.55;100.00
44131;BME280;29792;48.726;9.248;2022-12-05T00:41:05;96685.38;;;2.57;100.00
44131;BME280;29792;48.726;9.248;2022-12-05T00:43:31;96692.06;;;2.58;100.00
44131;BME280;29792;48.726;9.248;2022-12-05T00:46:06;96697.94;;;2.59;100.00
44131;BME280;29792;48.726;9.248;2022-12-05T00:48:33;96698.03;;;2.57;100.00
44131;BME280;29792;48.726;9.248;2022-12-05T00:51:07;96693.03;;;2.56;100.00
44131;BME280;29792;48.726;9.248;2022-12-05T00:53:32;96688.06;;;2.54;100.00
44131;BME280;29792;48.726;9.248;2022-12-05T00:56:03;96694.84;;;2.54;100.00
44131;BME280;29792;48.726;9.248;2022-12-05T00:58:29;96698.09;;;2.56;100.00
44131;BME280;29792;48.726;9.248;2022-12-05T01:00:54;96707.47;;;2.54;100.00
44131;BME280;29792;48.726;9.248;2022-12-05T01:03:19;96706.59;;;2.55;100.00
44131;BME280;29792;48.726;9.248;2022-12-05T01:05:45;96723.31;;;2.57;100.00
44131;BME280;29792;48.726;9.248;2022-12-05T01:08:13;96734.31;;;2.56;100.00
44131;BME280;29792;48.726;9.248;2022-12-05T01:10:38;96746.22;;;2.54;100.00
44131;BME280;29792;48.726;9.248;2022-12-05T01:13:04;96742.88;;;2.54;100.00
44131;BME280;29792;48.726;9.248;2022-12-05T01:15:29;96747.03;;;2.55;100.00
44131;BME280;29792;48.726;9.248;2022-12-05T01:17:55;96755.50;;;2.54;100.00
44131;BME280;29792;48.726;9.248;2022-12-05T01:20:20;96746.28;;;2.53;100.00
44131;BME280;29792;48.726;9.248;2022-12-05T01:22:46;96744.56;;;2.53;100.00
44131;BME280;29792;48.726;9.248;2022-12-05T01:25:11;96757.13;;;2.55;100.00
44131;BME280;29792;48.726;9.248;2022-12-05T01:27:36;96750.38;;;2.55;100.00
44131;BME280;29792;48.726;9.248;2022-12-05T01:30:03;96759.50;;;2.58;100.00
44131;BME280;29792;48.726;9.248;2022-12-05T01:32:28;96751.94;;;2.58;100.00
44131;BME280;29792;48.726;9.248;2022-12-05T01:34:54;96741.63;;;2.61;100.00
44131;BME280;29792;48.726;9.248;2022-12-05T01:37:19;96744.91;;;2.63;100.00
44131;BME280;29792;48.726;9.248;2022-12-05T01:39:45;96749.91;;;2.64;100.00
44131;BME280;29792;48.726;9.248;2022-12-05T01:42:10;96755.59;;;2.68;100.00
44131;BME280;29792;48.726;9.248;2022-12-05T01:47:01;96758.22;;;2.66;100.00
44131;BME280;29792;48.726;9.248;2022-12-05T01:49:30;96769.22;;;2.65;100.00
44131;BME280;29792;48.726;9.248;2022-12-05T01:52:01;96759.94;;;2.66;100.00
44131;BME280;29792;48.726;9.248;2022-12-05T01:54:28;96759.94;;;2.66;100.00
44131;BME280;29792;48.726;9.248;2022-12-05T01:56:59;96754.06;;;2.65;100.00
44131;BME280;29792;48.726;9.248;2022-12-05T01:59:28;96770.03;;;2.66;100.00
44131;BME280;29792;48.726;9.248;2022-12-05T02:01:54;96753.97;;;2.67;100.00
44131;BME280;29792;48.726;9.248;2022-12-05T02:04:20;96747.28;;;2.66;100.00
44131;BME280;29792;48.726;9.248;2022-12-05T02:06:46;96746.28;;;2.68;100.00
44131;BME280;29792;48.726;9.248;2022-12-05T02:09:11;96757.22;;;2.69;100.00
44131;BME280;29792;48.726;9.248;2022-12-05T02:11:57;96767.34;;;2.69;100.00
44131;BME280;29792;48.726;9.248;2022-12-05T02:14:35;96770.75;;;2.68;100.00
44131;BME280;29792;48.726;9.248;2022-12-05T02:17:31;96767.50;;;2.66;100.00
44131;BME280;29792;48.726;9.248;2022-12-05T02:25:57;96784.53;;;2.62;100.00
44131;BME280;29792;48.726;9.248;2022-12-05T02:31:36;96810.66;;;2.63;100.00
44131;BME280;29792;48.726;9.248;2022-12-05T02:34:29;96804.78;;;2.62;100.00
44131;BME280;29792;48.726;9.248;2022-12-05T02:37:08;96806.47;;;2.62;100.00
44131;BME280;29792;48.726;9.248;2022-12-05T02:39:44;96798.00;;;2.63;100.00
44131;BME280;29792;48.726;9.248;2022-12-05T02:42:21;96819.88;;;2.64;100.00
44131;BME280;29792;48.726;9.248;2022-12-05T02:44:54;96815.63;;;2.64;100.00
44131;BME280;29792;48.726;9.248;2022-12-05T02:47:24;96815.47;;;2.67;100.00
44131;BME280;29792;48.726;9.248;2022-12-05T02:49:50;96804.56;;;2.67;100.00
44131;BME280;29792;48.726;9.248;2022-12-05T02:52:18;96816.25;;;2.68;100.00
44131;BME280;29792;48.726;9.248;2022-12-05T02:54:46;96822.97;;;2.69;100.00
44131;BME280;29792;48.726;9.248;2022-12-05T02:57:14;96821.19;;;2.71;100.00
44131;BME280;29792;48.726;9.248;2022-12-05T02:59:40;96798.50;;;2.69;100.00
44131;BME280;29792;48.726;9.248;2022-12-05T03:02:21;96800.13;;;2.71;100.00
44131;BME280;29792;48.726;9.248;2022-12-05T03:04:47;96804.28;;;2.72;100.00
44131;BME280;29792;48.726;9.248;2022-12-05T03:07:13;96793.38;;;2.71;100.00
44131;BME280;29792;48.726;9.248;2022-12-05T03:09:44;96794.03;;;2.75;100.00
44131;BME280;29792;48.726;9.248;2022-12-05T03:12:15;96801.38;;;2.79;100.00
44131;BME280;29792;48.726;9.248;2022-12-05T03:14:49;96791.09;;;2.82;100.00
44131;BME280;29792;48.726;9.248;2022-12-05T03:17:20;96801.03;;;2.85;100.00
44131;BME280;29792;48.726;9.248;2022-12-05T03:19:58;96792.47;;;2.88;100.00
44131;BME280;29792;48.726;9.248;2022-12-05T03:22:34;96797.47;;;2.89;100.00
44131;BME280;29792;48.726;9.248;2022-12-05T03:25:01;96801.56;;;2.92;100.00
44131;BME280;29792;48.726;9.248;2022-12-05T03:27:55;96797.28;;;2.92;100.00
44131;BME280;29792;48.726;9.248;2022-12-05T03:30:25;96797.94;;;2.96;100.00
44131;BME280;29792;48.726;9.248;2022-12-05T03:33:02;96787.81;;;2.96;100.00
44131;BME280;29792;48.726;9.248;2022-12-05T03:35:36;96779.34;;;2.97;100.00
44131;BME280;29792;48.726;9.248;2022-12-05T03:38:28;96786.13;;;2.96;100.00
44131;BME280;29792;48.726;9.248;2022-12-05T03:43:46;96795.34;;;2.97;100.00
44131;BME280;29792;48.726;9.248;2022-12-05T03:46:28;96795.34;;;2.97;100.00
44131;BME280;29792;48.726;9.248;2022-12-05T03:51:40;96805.19;;;3.02;100.00
44131;BME280;29792;48.726;9.248;2022-12-05T03:54:11;96799.25;;;3.03;100.00
44131;BME280;29792;48.726;9.248;2022-12-05T03:56:45;96798.44;;;3.02;100.00
44131;BME280;29792;48.726;9.248;2022-12-05T03:59:21;96794.19;;;3.03;100.00
44131;BME280;29792;48.726;9.248;2022-12-05T04:01:52;96794.84;;;3.06;100.00
44131;BME280;29792;48.726;9.248;2022-12-05T04:04:26;96791.44;;;3.08;100.00
44131;BME280;29792;48.726;9.248;2022-12-05T04:06:53;96789.53;;;3.11;100.00
44131;BME280;29792;48.726;9.248;2022-12-05T04:09:25;96785.28;;;3.12;100.00
44131;BME280;29792;48.726;9.248;2022-12-05T04:11:56;96777.69;;;3.12;100.00
44131;BME280;29792;48.726;9.248;2022-12-05T04:15:00;96776.06;;;3.11;100.00
44131;BME280;29792;48.726;9.248;2022-12-05T04:17:25;96774.44;;;3.10;100.00
44131;BME280;29792;48.726;9.248;2022-12-05T04:19:59;96779.66;;;3.06;100.00
44131;BME280;29792;48.726;9.248;2022-12-05T04:22:45;96787.25;;;3.06;100.00
44131;BME280;29792;48.726;9.248;2022-12-05T04:25:12;96791.50;;;3.06;100.00
44131;BME280;29792;48.726;9.248;2022-12-05T04:28:35;96801.78;;;3.03;100.00
44131;BME280;29792;48.726;9.248;2022-12-05T04:31:16;96805.28;;;3.00;100.00
44131;BME280;29792;48.726;9.248;2022-12-05T04:33:54;96803.81;;;2.96;100.00
44131;BME280;29792;48.726;9.248;2022-12-05T04:36:25;96807.25;;;2.95;100.00
44131;BME280;29792;48.726;9.248;2022-12-05T04:39:03;96815.91;;;2.91;100.00
44131;BME280;29792;48.726;9.248;2022-12-05T04:41:36;96820.44;;;2.85;100.00
44131;BME280;29792;48.726;9.248;2022-12-05T04:44:08;96812.97;;;2.83;100.00
44131;BME280;29792;48.726;9.248;2022-12-05T04:46:37;96812.16;;;2.83;100.00
44131;BME280;29792;48.726;9.248;2022-12-05T04:49:07;96823.97;;;2.82;100.00
44131;BME280;29792;48.726;9.248;2022-12-05T04:51:35;96819.81;;;2.81;100.00
44131;BME280;29792;48.726;9.248;2022-12-05T04:54:21;96821.75;;;2.76;100.00
44131;BME280;29792;48.726;9.248;2022-12-05T04:56:50;96827.78;;;2.74;100.00
44131;BME280;29792;48.726;9.248;2022-12-05T04:59:18;96826.25;;;2.71;100.00
44131;BME280;29792;48.726;9.248;2022-12-05T05:01:52;96823.78;;;2.69;100.00
44131;BME280;29792;48.726;9.248;2022-12-05T05:04:40;96825.59;;;2.67;100.00
44131;BME280;29792;48.726;9.248;2022-12-05T05:07:09;96835.78;;;2.66;100.00
44131;BME280;29792;48.726;9.248;2022-12-05T05:09:35;96840.97;;;2.63;100.00
44131;BME280;29792;48.726;9.248;2022-12-05T05:12:01;96843.66;;;2.60;100.00
44131;BME280;29792;48.726;9.248;2022-12-05T05:14:27;96839.53;;;2.59;100.00
44131;BME280;29792;48.726;9.248;2022-12-05T05:16:52;96844.47;;;2.60;100.00
44131;BME280;29792;48.726;9.248;2022-12-05T05:19:17;96847.00;;;2.60;100.00
44131;BME280;29792;48.726;9.248;2022-12-05T05:21:43;96847.00;;;2.60;100.00
44131;BME280;29792;48.726;9.248;2022-12-05T05:24:11;96844.59;;;2.59;100.00
44131;BME280;29792;48.726;9.248;2022-12-05T05:26:38;96852.06;;;2.60;100.00
44131;BME280;29792;48.726;9.248;2022-12-05T05:29:04;96852.00;;;2.62;100.00
44131;BME280;29792;48.726;9.248;2022-12-05T05:31:30;96857.78;;;2.64;100.00
44131;BME280;29792;48.726;9.248;2022-12-05T05:33:56;96859.44;;;2.65;100.00
44131;BME280;29792;48.726;9.248;2022-12-05T05:36:23;96863.59;;;2.66;100.00
44131;BME280;29792;48.726;9.248;2022-12-05T05:38:52;96857.66;;;2.67;100.00
44131;BME280;29792;48.726;9.248;2022-12-05T05:43:44;96873.63;;;2.67;100.00
44131;BME280;29792;48.726;9.248;2022-12-05T05:46:10;96869.38;;;2.68;100.00
44131;BME280;29792;48.726;9.248;2022-12-05T05:48:36;96868.41;;;2.71;100.00
44131;BME280;29792;48.726;9.248;2022-12-05T05:51:04;96863.19;;;2.74;100.00
44131;BME280;29792;48.726;9.248;2022-12-05T05:53:29;96866.38;;;2.77;100.00
44131;BME280;29792;48.726;9.248;2022-12-05T05:55:55;96856.94;;;2.81;100.00
44131;BME280;29792;48.726;9.248;2022-12-05T05:58:20;96865.16;;;2.84;100.00
44131;BME280;29792;48.726;9.248;2022-12-05T06:00:45;96860.84;;;2.86;100.00
44131;BME280;29792;48.726;9.248;2022-12-05T06:03:11;96866.66;;;2.88;100.00
44131;BME280;29792;48.726;9.248;2022-12-05T06:05:37;96869.91;;;2.90;100.00
44131;BME280;29792;48.726;9.248;2022-12-05T06:08:03;96878.22;;;2.92;100.00
44131;BME280;29792;48.726;9.248;2022-12-05T06:10:28;96872.28;;;2.93;100.00
44131;BME280;29792;48.726;9.248;2022-12-05T06:12:55;96869.59;;;2.96;100.00
44131;BME280;29792;48.726;9.248;2022-12-05T06:15:20;96871.22;;;2.97;100.00
44131;BME280;29792;48.726;9.248;2022-12-05T06:17:46;96870.41;;;2.97;100.00
44131;BME280;29792;48.726;9.248;2022-12-05T06:20:11;96866.16;;;2.97;100.00
44131;BME280;29792;48.726;9.248;2022-12-05T06:22:36;96873.84;;;2.96;100.00
44131;BME280;29792;48.726;9.248;2022-12-05T06:25:02;96881.69;;;2.91;100.00
44131;BME280;29792;48.726;9.248;2022-12-05T06:27:28;96886.88;;;2.88;100.00
44131;BME280;29792;48.726;9.248;2022-12-05T06:29:55;96902.19;;;2.85;100.00
44131;BME280;29792;48.726;9.248;2022-12-05T06:32:20;96915.84;;;2.83;100.00
44131;BME280;29792;48.726;9.248;2022-12-05T06:34:45;96911.69;;;2.82;100.00
44131;BME280;29792;48.726;9.248;2022-12-05T06:37:11;96918.25;;;2.84;100.00
44131;BME280;29792;48.726;9.248;2022-12-05T06:39:36;96911.59;;;2.83;100.00
44131;BME280;29792;48.726;9.248;2022-12-05T06:42:02;96915.84;;;2.83;100.00
44131;BME280;29792;48.726;9.248;2022-12-05T06:44:28;96925.06;;;2.84;100.00
44131;BME280;29792;48.726;9.248;2022-12-05T06:46:53;96911.59;;;2.83;100.00
44131;BME280;29792;48.726;9.248;2022-12-05T06:49:20;96913.22;;;2.84;100.00
44131;BME280;29792;48.726;9.248;2022-12-05T06:51:46;96907.25;;;2.85;100.00
44131;BME280;29792;48.726;9.248;2022-12-05T06:54:12;96902.19;;;2.85;100.00
44131;BME280;29792;48.726;9.248;2022-12-05T06:56:38;96909.56;;;2.90;100.00
44131;BME280;29792;48.726;9.248;2022-12-05T06:59:03;96911.09;;;2.92;100.00
44131;BME280;29792;48.726;9.248;2022-12-05T07:01:28;96911.84;;;2.94;100.00
44131;BME280;29792;48.726;9.248;2022-12-05T07:04:12;96916.84;;;2.96;100.00
44131;BME280;29792;48.726;9.248;2022-12-05T07:06:39;96923.47;;;2.98;100.00
44131;BME280;29792;48.726;9.248;2022-12-05T07:09:05;96932.59;;;3.01;100.00
44131;BME280;29792;48.726;9.248;2022-12-05T07:11:31;96940.09;;;3.02;100.00
44131;BME280;29792;48.726;9.248;2022-12-05T07:13:56;96939.34;;;3.00;100.00
44131;BME280;29792;48.726;9.248;2022-12-05T07:16:22;96946.16;;;3.00;100.00
44131;BME280;29792;48.726;9.248;2022-12-05T07:18:47;96946.16;;;3.00;100.00
44131;BME280;29792;48.726;9.248;2022-12-05T07:21:13;96948.69;;;3.00;100.00
44131;BME280;29792;48.726;9.248;2022-12-05T07:23:41;96956.91;;;3.03;100.00
44131;BME280;29792;48.726;9.248;2022-12-05T07:26:09;96958.56;;;3.04;100.00
44131;BME280;29792;48.726;9.248;2022-12-05T07:28:36;96969.34;;;3.08;100.00
44131;BME280;29792;48.726;9.248;2022-12-05T07:31:03;96966.66;;;3.11;100.00
44131;BME280;29792;48.726;9.248;2022-12-05T07:33:29;96968.97;;;3.16;100.00
44131;BME280;29792;48.726;9.248;2022-12-05T07:35:59;96958.66;;;3.19;100.00
44131;BME280;29792;48.726;9.248;2022-12-05T07:38:25;96965.03;;;3.26;100.00
44131;BME280;29792;48.726;9.248;2022-12-05T07:40:50;96969.81;;;3.32;100.00
44131;BME280;29792;48.726;9.248;2022-12-05T07:43:15;96959.34;;;3.38;100.00
44131;BME280;29792;48.726;9.248;2022-12-05T07:45:40;96961.72;;;3.41;100.00
44131;BME280;29792;48.726;9.248;2022-12-05T07:48:06;96962.22;;;3.48;100.00
44131;BME280;29792;48.726;9.248;2022-12-05T07:50:31;96966.88;;;3.55;100.00
44131;BME280;29792;48.726;9.248;2022-12-05T07:52:56;96971.53;;;3.63;100.00
44131;BME280;29792;48.726;9.248;2022-12-05T07:55:22;96961.00;;;3.70;100.00
44131;BME280;29792;48.726;9.248;2022-12-05T07:57:47;96967.38;;;3.77;100.00
44131;BME280;29792;48.726;9.248;2022-12-05T08:00:13;96974.56;;;3.85;100.00
44131;BME280;29792;48.726;9.248;2022-12-05T08:02:38;96969.22;;;3.90;100.00
44131;BME280;29792;48.726;9.248;2022-12-05T08:05:04;96967.34;;;3.93;100.00
44131;BME280;29792;48.726;9.248;2022-12-05T08:07:29;96977.34;;;3.96;100.00
44131;BME280;29792;48.726;9.248;2022-12-05T08:09:54;96968.84;;;3.97;100.00
44131;BME280;29792;48.726;9.248;2022-12-05T08:12:19;96974.69;;;3.98;100.00
44131;BME280;29792;48.726;9.248;2022-12-05T08:14:45;96977.22;;;3.98;100.00
44131;BME280;29792;48.726;9.248;2022-12-05T08:17:10;96986.56;;;3.97;100.00
44131;BME280;29792;48.726;9.248;2022-12-05T08:19:35;96989.91;;;3.98;100.00
44131;BME280;29792;48.726;9.248;2022-12-05T08:22:01;96984.03;;;3.97;100.00
44131;BME280;29792;48.726;9.248;2022-12-05T08:24:26;96992.44;;;3.98;100.00
44131;BME280;29792;48.726;9.248;2022-12-05T08:26:51;96987.47;;;3.96;100.00
44131;BME280;29792;48.726;9.248;2022-12-05T08:29:19;96992.53;;;3.96;100.00
44131;BME280;29792;48.726;9.248;2022-12-05T08:31:48;96995.97;;;3.95;100.00
44131;BME280;29792;48.726;9.248;2022-12-05T08:34:14;96998.50;;;3.95;100.00
44131;BME280;29792;48.726;9.248;2022-12-05T08:36:40;97002.75;;;3.95;100.00
44131;BME280;29792;48.726;9.248;2022-12-05T08:39:07;97003.56;;;3.95;100.00
44131;BME280;29792;48.726;9.248;2022-12-05T08:41:33;97003.50;;;3.97;100.00
44131;BME280;29792;48.726;9.248;2022-12-05T08:44:01;97010.28;;;3.96;100.00
44131;BME280;29792;48.726;9.248;2022-12-05T08:46:28;97011.00;;;3.98;100.00
44131;BME280;29792;48.726;9.248;2022-12-05T08:48:54;97016.81;;;4.00;100.00
44131;BME280;29792;48.726;9.248;2022-12-05T08:51:19;97006.44;;;4.05;100.00
44131;BME280;29792;48.726;9.248;2022-12-05T08:53:44;97005.28;;;4.10;100.00
44131;BME280;29792;48.726;9.248;2022-12-05T08:56:10;97001.41;;;4.19;100.00
44131;BME280;29792;48.726;9.248;2022-12-05T08:58:36;97000.19;;;4.26;100.00
44131;BME280;29792;48.726;9.248;2022-12-05T09:01:10;97011.63;;;4.33;100.00
44131;BME280;29792;48.726;9.248;2022-12-05T09:03:36;97014.00;;;4.36;100.00
44131;BME280;29792;48.726;9.248;2022-12-05T09:06:06;97019.63;;;4.41;100.00
44131;BME280;29792;48.726;9.248;2022-12-05T09:08:32;97028.69;;;4.45;100.00
44131;BME280;29792;48.726;9.248;2022-12-05T09:11:09;97031.94;;;4.47;100.00
44131;BME280;29792;48.726;9.248;2022-12-05T09:13:34;97036.84;;;4.50;100.00
44131;BME280;29792;48.726;9.248;2022-12-05T09:16:07;97034.88;;;4.55;100.00
44131;BME280;29792;48.726;9.248;2022-12-05T09:18:32;97032.84;;;4.62;100.00
44131;BME280;29792;48.726;9.248;2022-12-05T09:21:04;97034.19;;;4.68;100.00
44131;BME280;29792;48.726;9.248;2022-12-05T09:23:29;97038.09;;;4.73;100.00
44131;BME280;29792;48.726;9.248;2022-12-05T09:25:54;97036.78;;;4.82;100.00
44131;BME280;29792;48.726;9.248;2022-12-05T09:28:26;97043.88;;;4.91;100.00
44131;BME280;29792;48.726;9.248;2022-12-05T09:30:57;97044.25;;;4.99;100.00
44131;BME280;29792;48.726;9.248;2022-12-05T09:33:23;97045.53;;;5.06;100.00
44131;BME280;29792;48.726;9.248;2022-12-05T09:35:49;97050.25;;;5.12;100.00
44131;BME280;29792;48.726;9.248;2022-12-05T09:38:14;97058.22;;;5.20;100.00
44131;BME280;29792;48.726;9.248;2022-12-05T09:40:41;97057.25;;;5.23;100.00
44131;BME280;29792;48.726;9.248;2022-12-05T09:43:23;97059.50;;;5.27;100.00
44131;BME280;29792;48.726;9.248;2022-12-05T09:46:03;97058.53;;;5.30;100.00
44131;BME280;29792;48.726;9.248;2022-12-05T09:48:37;97060.00;;;5.34;100.00
44131;BME280;29792;48.726;9.248;2022-12-05T09:51:07;97050.66;;;5.34;100.00
44131;BME280;29792;48.726;9.248;2022-12-05T09:53:36;97059.09;;;5.35;100.00
44131;BME280;29792;48.726;9.248;2022-12-05T10:13:08;97057.16;;;5.38;100.00
44131;BME280;29792;48.726;9.248;2022-12-05T10:15:43;97053.72;;;5.40;100.00
44131;BME280;29792;48.726;9.248;2022-12-05T10:18:39;97054.38;;;5.43;100.00
44131;BME280;29792;48.726;9.248;2022-12-05T10:21:26;97054.81;;;5.50;100.00
44131;BME280;29792;48.726;9.248;2022-12-05T10:23:59;97053.56;;;5.57;100.00
44131;BME280;29792;48.726;9.248;2022-12-05T10:26:32;97052.19;;;5.65;100.00
44131;BME280;29792;48.726;9.248;2022-12-05T10:29:24;97043.19;;;5.74;100.00
44131;BME280;29792;48.726;9.248;2022-12-05T10:31:56;97037.44;;;5.85;100.00
44131;BME280;29792;48.726;9.248;2022-12-05T10:34:37;97028.47;;;5.93;100.00
44131;BME280;29792;48.726;9.248;2022-12-05T10:37:15;97045.53;;;6.05;100.00
44131;BME280;29792;48.726;9.248;2022-12-05T10:39:42;97036.44;;;6.16;100.00
44131;BME280;29792;48.726;9.248;2022-12-05T10:42:34;97035.22;;;6.21;100.00
44131;BME280;29792;48.726;9.248;2022-12-05T10:45:03;97036.19;;;6.33;100.00
44131;BME280;29792;48.726;9.248;2022-12-05T10:47:30;97039.78;;;6.43;100.00
44131;BME280;29792;48.726;9.248;2022-12-05T10:50:05;97036.16;;;6.47;100.00
44131;BME280;29792;48.726;9.248;2022-12-05T10:52:31;97050.00;;;6.56;100.00
44131;BME280;29792;48.726;9.248;2022-12-05T10:55:03;97043.63;;;6.63;100.00
44131;BME280;29792;48.726;9.248;2022-12-05T10:57:30;97040.03;;;6.65;100.00
44131;BME280;29792;48.726;9.248;2022-12-05T10:59:56;97043.31;;;6.67;100.00
44131;BME280;29792;48.726;9.248;2022-12-05T11:02:28;97032.13;;;6.70;100.00
44131;BME280;29792;48.726;9.248;2022-12-05T11:04:54;97033.84;;;6.69;100.00
44131;BME280;29792;48.726;9.248;2022-12-05T11:07:30;97035.59;;;6.69;100.00
44131;BME280;29792;48.726;9.248;2022-12-05T11:09:56;97031.94;;;6.73;100.00
44131;BME280;29792;48.726;9.248;2022-12-05T11:12:36;97029.28;;;6.74;100.00
44131;BME280;29792;48.726;9.248;2022-12-05T11:15:21;97032.47;;;6.78;100.00
44131;BME280;29792;48.726;9.248;2022-12-05T11:17:48;97026.53;;;6.77;100.00
44131;BME280;29792;48.726;9.248;2022-12-05T11:22:43;97024.50;;;6.82;100.00
44131;BME280;29792;48.726;9.248;2022-12-05T11:25:32;97024.00;;;6.90;100.00
44131;BME280;29792;48.726;9.248;2022-12-05T11:27:59;97038.59;;;7.01;100.00
44131;BME280;29792;48.726;9.248;2022-12-05T11:30:57;97033.22;;;7.18;100.00
44131;BME280;29792;48.726;9.248;2022-12-05T11:33:24;97033.81;;;7.34;100.00
44131;BME280;29792;48.726;9.248;2022-12-05T11:35:52;97030.56;;;7.45;100.00
44131;BME280;29792;48.726;9.248;2022-12-05T11:38:20;97035.63;;;7.57;100.00
44131;BME280;29792;48.726;9.248;2022-12-05T11:40:57;97029.28;;;7.76;100.00
44131;BME280;29792;48.726;9.248;2022-12-05T11:43:33;97028.25;;;7.91;100.00
44131;BME280;29792;48.726;9.248;2022-12-05T11:46:32;97027.38;;;8.03;100.00
44131;BME280;29792;48.726;9.248;2022-12-05T11:55:12;97025.28;;;8.33;97.61
44131;BME280;29792;48.726;9.248;2022-12-05T12:00:24;97021.00;;;8.34;94.64
44131;BME280;29792;48.726;9.248;2022-12-05T12:05:52;97027.63;;;8.24;94.13
44131;BME280;29792;48.726;9.248;2022-12-05T12:08:23;97019.91;;;8.13;91.89
44131;BME280;29792;48.726;9.248;2022-12-05T12:13:54;97019.88;;;7.89;91.24
44131;BME280;29792;48.726;9.248;2022-12-05T12:19:29;97023.38;;;7.75;90.68
44131;BME280;29792;48.726;9.248;2022-12-05T12:27:47;97018.72;;;7.56;90.35
44131;BME280;29792;48.726;9.248;2022-12-05T12:30:20;97012.69;;;7.57;90.82
44131;BME280;29792;48.726;9.248;2022-12-05T12:35:42;97024.44;;;7.60;91.61
44131;BME280;29792;48.726;9.248;2022-12-05T12:41:24;97027.28;;;7.55;90.77
44131;BME280;29792;48.726;9.248;2022-12-05T12:44:03;97029.13;;;7.53;92.06
44131;BME280;29792;48.726;9.248;2022-12-05T12:47:00;97029.22;;;7.52;91.66
44131;BME280;29792;48.726;9.248;2022-12-05T12:50:00;97018.00;;;7.54;92.31
44131;BME280;29792;48.726;9.248;2022-12-05T12:52:42;97016.41;;;7.53;92.25
44131;BME280;29792;48.726;9.248;2022-12-05T12:55:30;97017.31;;;7.52;91.92
44131;BME280;29792;48.726;9.248;2022-12-05T13:01:00;97009.56;;;7.54;92.45
44131;BME280;29792;48.726;9.248;2022-12-05T13:03:40;97013.03;;;7.53;91.64
44131;BME280;29792;48.726;9.248;2022-12-05T13:06:16;97008.94;;;7.50;91.59
44131;BME280;29792;48.726;9.248;2022-12-05T13:08:49;97009.25;;;7.46;91.92
44131;BME280;29792;48.726;9.248;2022-12-05T13:11:18;97020.47;;;7.43;91.31
44131;BME280;29792;48.726;9.248;2022-12-05T13:13:48;97018.34;;;7.37;91.13
44131;BME280;29792;48.726;9.248;2022-12-05T13:16:31;97008.44;;;7.33;90.99
44131;BME280;29792;48.726;9.248;2022-12-05T13:18:58;97020.69;;;7.27;89.93
44131;BME280;29792;48.726;9.248;2022-12-05T13:21:26;97016.00;;;7.21;90.59
44131;BME280;29792;48.726;9.248;2022-12-05T13:23:54;97012.13;;;7.16;89.84
44131;BME280;29792;48.726;9.248;2022-12-05T13:26:21;97004.56;;;7.14;90.69
44131;BME280;29792;48.726;9.248;2022-12-05T13:28:53;97005.28;;;7.16;91.60
44131;BME280;29792;48.726;9.248;2022-12-05T13:31:34;97004.88;;;7.22;90.99
44131;BME280;29792;48.726;9.248;2022-12-05T13:34:00;96995.31;;;7.26;90.79
44131;BME280;29792;48.726;9.248;2022-12-05T13:36:25;96995.94;;;7.30;91.06
44131;BME280;29792;48.726;9.248;2022-12-05T13:41:57;97005.19;;;7.43;91.92
44131;BME280;29792;48.726;9.248;2022-12-05T13:44:51;97011.28;;;7.53;91.73
44131;BME280;29792;48.726;9.248;2022-12-05T13:52:41;97018.19;;;7.77;89.42
44131;BME280;29792;48.726;9.248;2022-12-05T13:55:26;97016.88;;;7.95;88.91
44131;BME280;29792;48.726;9.248;2022-12-05T13:57:55;97024.19;;;8.12;88.57
44131;BME280;29792;48.726;9.248;2022-12-05T14:00:34;97026.09;;;8.34;87.98
44131;BME280;29792;48.726;9.248;2022-12-05T14:05:46;97029.06;;;8.75;86.09
44131;BME280;29792;48.726;9.248;2022-12-05T14:15:47;97032.72;;;9.06;81.37
44131;BME280;29792;48.726;9.248;2022-12-05T14:27:09;97034.81;;;8.66;80.70
44131;BME280;29792;48.726;9.248;2022-12-05T14:29:55;97038.63;;;8.37;79.87
44131;BME280;29792;48.726;9.248;2022-12-05T14:32:27;97038.69;;;8.12;80.63
44131;BME280;29792;48.726;9.248;2022-12-05T14:37:27;97045.31;;;7.78;81.79
44131;BME280;29792;48.726;9.248;2022-12-05T14:39:59;97041.22;;;7.62;82.71
44131;BME280;29792;48.726;9.248;2022-12-05T14:42:37;97038.81;;;7.48;83.83
44131;BME280;29792;48.726;9.248;2022-12-05T14:45:28;97047.50;;;7.46;84.89
44131;BME280;29792;48.726;9.248;2022-12-05T14:48:00;97051.09;;;7.80;86.70
44131;BME280;29792;48.726;9.248;2022-12-05T14:53:20;97054.69;;;7.77;82.56
44131;BME280;29792;48.726;9.248;2022-12-05T14:55:48;97046.75;;;7.56;82.18
44131;BME280;29792;48.726;9.248;2022-12-05T14:58:18;97041.38;;;7.36;82.42
44131;BME280;29792;48.726;9.248;2022-12-05T15:00:53;97044.31;;;7.17;82.72
44131;BME280;29792;48.726;9.248;2022-12-05T15:03:29;97040.72;;;7.07;83.71
44131;BME280;29792;48.726;9.248;2022-12-05T15:05:56;97044.09;;;6.95;83.87